createdAt,value
2022-10-23T00:00:31.725Z,3.55
2022-10-23T00:05:33.786Z,4.00
2022-10-23T00:10:35.580Z,4.32
2022-10-23T00:15:37.325Z,4.15
2022-10-23T00:20:38.774Z,4.43
2022-10-23T00:25:40.198Z,4.57
2022-10-23T00:30:41.892Z,5.15
2022-10-23T00:35:43.873Z,5.72
2022-10-23T00:40:47.065Z,5.65
2022-10-23T00:45:48.658Z,5.43
2022-10-23T00:50:50.476Z,5.18
2022-10-23T00:55:54.806Z,5.28
2022-10-23T01:00:57.149Z,5.82
2022-10-23T01:06:23.192Z,5.75
2022-10-23T01:11:38.930Z,7.28
2022-10-23T01:17:00.281Z,7.60
2022-10-23T01:22:04.511Z,7.47
2022-10-23T01:27:27.937Z,8.45
2022-10-23T01:32:44.068Z,8.13
2022-10-23T01:37:51.160Z,8.77
2022-10-23T01:42:58.170Z,7.68
2022-10-23T01:48:02.618Z,8.68
2022-10-23T01:58:08.468Z,8.23
2022-10-23T02:03:13.148Z,9.70
2022-10-23T02:08:14.921Z,9.20
2022-10-23T02:13:29.165Z,9.15
2022-10-23T02:18:44.190Z,9.52
2022-10-23T02:24:01.143Z,8.80
2022-10-23T02:29:38.900Z,8.90
2022-10-23T02:34:40.738Z,9.30
2022-10-23T02:39:42.274Z,11.40
2022-10-23T02:44:56.221Z,11.38
2022-10-23T02:50:23.761Z,10.70
2022-10-23T02:56:00.760Z,10.88
2022-10-23T03:01:19.960Z,11.00
2022-10-23T03:06:22.783Z,10.75
2022-10-23T03:11:24.262Z,11.27
2022-10-23T03:16:25.772Z,11.20
2022-10-23T03:21:27.330Z,11.30
2022-10-23T03:26:29.012Z,11.35
2022-10-23T03:31:30.430Z,10.75
2022-10-23T03:36:31.963Z,11.52
2022-10-23T03:41:33.441Z,11.85
2022-10-23T03:46:34.853Z,11.98
2022-10-23T03:51:36.515Z,12.13
2022-10-23T03:56:37.950Z,13.90
2022-10-23T04:01:39.475Z,13.32
2022-10-23T04:06:41.233Z,13.13
2022-10-23T04:11:42.901Z,14.38
2022-10-23T04:16:44.356Z,13.27
2022-10-23T04:21:45.995Z,14.30
2022-10-23T04:26:47.533Z,16.00
2022-10-23T04:31:49.274Z,14.50
2022-10-23T04:36:50.973Z,15.02
2022-10-23T04:41:53.036Z,14.75
2022-10-23T04:46:54.517Z,14.68
2022-10-23T04:51:55.981Z,13.52
2022-10-23T04:56:57.513Z,13.80
2022-10-23T05:02:02.841Z,12.32
2022-10-23T05:07:04.481Z,13.05
2022-10-23T05:12:06.005Z,14.23
2022-10-23T05:17:12.984Z,11.65
2022-10-23T05:22:15.381Z,11.40
2022-10-23T05:27:16.968Z,11.98
2022-10-23T05:32:18.618Z,10.32
2022-10-23T05:37:20.220Z,9.80
2022-10-23T05:42:21.645Z,10.40
2022-10-23T05:47:23.072Z,9.82
2022-10-23T05:52:24.634Z,10.45
2022-10-23T05:57:26.213Z,10.43
2022-10-23T06:02:27.929Z,10.50
2022-10-23T06:07:35.714Z,10.43
2022-10-23T06:12:37.539Z,11.57
2022-10-23T06:17:38.983Z,11.88
2022-10-23T06:22:40.670Z,11.30
2022-10-23T06:27:42.578Z,10.82
2022-10-23T06:32:44.411Z,10.27
2022-10-23T06:37:46.041Z,12.55
2022-10-23T06:42:47.504Z,11.13
2022-10-23T06:47:52.270Z,10.32
2022-10-23T06:52:54.240Z,11.40
2022-10-23T06:57:58.919Z,13.65
2022-10-23T07:03:00.464Z,12.85
2022-10-23T07:08:04.428Z,13.18
2022-10-23T07:13:05.907Z,12.15
2022-10-23T07:18:14.202Z,16.15
2022-10-23T07:23:16.298Z,13.93
2022-10-23T07:28:17.726Z,14.57
2022-10-23T07:33:19.132Z,14.70
2022-10-23T07:38:20.654Z,15.25
2022-10-23T07:43:22.186Z,17.00
2022-10-23T07:48:24.651Z,15.40
2022-10-23T07:53:26.562Z,18.48
2022-10-23T07:58:29.401Z,19.77
2022-10-23T08:03:34.873Z,17.02
2022-10-23T08:08:36.736Z,19.42
2022-10-23T08:13:38.191Z,18.88
2022-10-23T08:18:41.306Z,19.65
2022-10-23T08:23:43.635Z,17.92
2022-10-23T08:28:45.106Z,18.80
2022-10-23T08:38:57.966Z,18.80
2022-10-23T08:44:09.785Z,17.17
2022-10-23T08:49:42.171Z,17.83
2022-10-23T08:54:56.992Z,16.98
2022-10-23T09:00:03.335Z,16.98
2022-10-23T09:05:13.631Z,15.90
2022-10-23T09:10:31.085Z,17.98
2022-10-23T09:15:42.221Z,17.05
2022-10-23T09:20:46.180Z,16.40
2022-10-23T09:25:50.870Z,17.30
2022-10-23T09:30:53.187Z,15.32
2022-10-23T09:36:06.782Z,16.95
2022-10-23T09:41:17.921Z,16.85
2022-10-23T09:46:19.397Z,16.15
2022-10-23T09:51:21.634Z,18.48
2022-10-23T09:56:24.693Z,18.40
2022-10-23T10:01:32.683Z,20.83
2022-10-23T10:06:34.292Z,19.85
2022-10-23T10:11:51.648Z,21.30
2022-10-23T10:17:05.460Z,21.63
2022-10-23T10:22:28.683Z,22.48
2022-10-23T10:27:46.340Z,24.83
2022-10-23T10:33:00.092Z,24.30
2022-10-23T10:38:09.767Z,22.13
2022-10-23T10:43:26.090Z,20.80
2022-10-23T10:48:51.996Z,19.13
2022-10-23T10:54:27.431Z,20.45
2022-10-23T10:59:38.154Z,19.40
2022-10-23T11:04:45.682Z,19.88
2022-10-23T11:09:47.729Z,16.88
2022-10-23T11:14:50.302Z,17.38
2022-10-23T11:20:39.978Z,17.65
2022-10-23T11:26:06.428Z,18.23
2022-10-23T11:31:12.283Z,19.80
2022-10-23T11:36:39.141Z,20.65
2022-10-23T11:41:49.232Z,19.17
2022-10-23T11:47:05.467Z,18.42
2022-10-23T11:52:23.240Z,17.52
2022-10-23T11:57:24.783Z,15.50
2022-10-23T12:02:42.978Z,14.05
2022-10-23T12:07:46.656Z,14.20
2022-10-23T12:13:00.106Z,13.25
2022-10-23T12:18:15.353Z,11.70
2022-10-23T12:23:53.699Z,11.07
2022-10-23T12:29:19.566Z,9.25
2022-10-23T12:34:50.852Z,10.40
2022-10-23T12:39:55.128Z,10.00
2022-10-23T12:45:18.167Z,9.77
2022-10-23T12:50:25.769Z,9.30
2022-10-23T12:55:47.777Z,9.25
2022-10-23T13:00:55.415Z,9.95
2022-10-23T13:05:58.779Z,9.90
2022-10-23T13:11:00.885Z,9.40
2022-10-23T13:16:14.028Z,8.40
2022-10-23T13:21:23.066Z,7.30
2022-10-23T13:26:45.351Z,7.50
2022-10-23T13:31:47.428Z,9.15
2022-10-23T13:36:56.187Z,7.60
2022-10-23T13:42:09.919Z,7.18
2022-10-23T13:47:13.103Z,7.45
2022-10-23T13:52:20.015Z,8.50
2022-10-23T13:57:21.552Z,8.25
2022-10-23T14:02:24.327Z,7.70
2022-10-23T14:07:25.813Z,9.15
2022-10-23T14:12:39.169Z,8.57
2022-10-23T14:17:40.598Z,7.47
2022-10-23T14:22:42.377Z,9.05
2022-10-23T14:27:44.226Z,7.55
2022-10-23T14:32:47.119Z,7.93
2022-10-23T14:37:48.885Z,7.82
2022-10-23T14:42:50.327Z,9.10
2022-10-23T14:47:51.805Z,8.75
2022-10-23T14:52:53.338Z,9.13
2022-10-23T14:57:55.984Z,9.57
2022-10-23T15:02:57.400Z,9.75
2022-10-23T15:07:58.988Z,8.70
2022-10-23T15:13:00.436Z,9.10
2022-10-23T15:18:01.871Z,8.73
2022-10-23T15:23:03.782Z,9.27
2022-10-23T15:28:05.181Z,8.65
2022-10-23T15:33:06.686Z,8.90
2022-10-23T15:38:08.149Z,8.00
2022-10-23T15:43:13.046Z,13.55
2022-10-23T15:48:14.958Z,24.50
2022-10-23T15:53:16.405Z,14.85
2022-10-23T15:58:17.839Z,11.23
2022-10-23T16:03:19.307Z,27.65
2022-10-23T16:08:20.813Z,9.38
2022-10-23T16:13:22.257Z,7.03
2022-10-23T16:18:23.919Z,7.53
2022-10-23T16:23:28.083Z,7.70
2022-10-23T16:28:29.587Z,8.55
2022-10-23T16:33:31.001Z,8.35
2022-10-23T16:38:32.636Z,7.70
2022-10-23T16:43:34.089Z,7.03
2022-10-23T16:48:36.317Z,7.15
2022-10-23T16:53:38.021Z,6.03
2022-10-23T16:58:42.315Z,6.50
2022-10-23T17:08:49.957Z,6.40
2022-10-23T17:13:58.478Z,6.72
2022-10-23T17:19:01.782Z,6.80
2022-10-23T17:24:03.832Z,7.13
2022-10-23T17:29:07.298Z,5.30
2022-10-23T17:34:11.638Z,6.07
2022-10-23T17:44:15.704Z,6.07
2022-10-23T17:49:17.282Z,6.45
2022-10-23T17:54:18.884Z,6.10
2022-10-23T17:59:21.869Z,6.38
2022-10-23T18:04:23.427Z,6.63
2022-10-23T18:09:25.060Z,6.63
2022-10-23T18:14:29.441Z,7.18
2022-10-23T18:19:31.222Z,7.60
2022-10-23T18:24:32.903Z,7.30
2022-10-23T18:29:34.539Z,6.38
2022-10-23T18:34:36.258Z,7.25
2022-10-23T18:39:38.878Z,6.97
2022-10-23T18:44:41.757Z,6.65
2022-10-23T18:49:44.408Z,7.07
2022-10-23T18:54:45.850Z,6.35
2022-10-23T18:59:47.399Z,6.32
2022-10-23T19:04:49.073Z,6.00
2022-10-23T19:09:51.015Z,6.03
2022-10-23T19:14:54.805Z,6.00
2022-10-23T19:20:07.184Z,5.47
2022-10-23T19:25:19.470Z,5.47
2022-10-23T19:30:22.804Z,4.90
2022-10-23T19:35:24.519Z,5.23
2022-10-23T19:40:25.979Z,4.10
2022-10-23T19:45:27.483Z,4.50
2022-10-23T19:50:29.051Z,5.10
2022-10-23T19:55:30.502Z,4.70
2022-10-23T20:00:31.967Z,4.07
2022-10-23T20:05:33.405Z,4.13
2022-10-23T20:10:40.715Z,4.13
2022-10-23T20:15:42.160Z,4.47
2022-10-23T20:20:43.661Z,4.38
2022-10-23T20:25:45.121Z,4.20
2022-10-23T20:30:46.597Z,4.40
2022-10-23T20:35:48.129Z,4.15
2022-10-23T20:40:49.624Z,4.40
2022-10-23T20:45:51.072Z,3.85
2022-10-23T20:50:52.504Z,4.10
2022-10-23T20:55:53.931Z,4.07
2022-10-23T21:00:57.243Z,3.65
2022-10-23T21:06:07.220Z,4.50
2022-10-23T21:11:13.775Z,3.90
2022-10-23T21:16:28.674Z,3.83
2022-10-23T21:21:33.665Z,3.83
2022-10-23T21:26:35.528Z,3.70
2022-10-23T21:31:37.149Z,3.53
2022-10-23T21:36:53.850Z,3.67
2022-10-23T21:42:00.020Z,3.47
2022-10-23T21:47:01.429Z,3.97
2022-10-23T21:52:04.030Z,3.22
2022-10-23T21:57:12.104Z,3.08
2022-10-23T22:02:13.643Z,3.13
2022-10-23T22:07:15.309Z,2.83
2022-10-23T22:12:16.808Z,3.25
2022-10-23T22:17:18.265Z,3.15
2022-10-23T22:22:19.686Z,2.47
2022-10-23T22:27:21.093Z,2.97
2022-10-23T22:32:22.518Z,2.53
2022-10-23T22:37:24.025Z,2.58
2022-10-23T22:42:25.536Z,2.90
2022-10-23T22:47:29.241Z,2.90
2022-10-23T22:52:30.730Z,3.40
2022-10-23T22:57:32.182Z,2.63
2022-10-23T23:02:33.632Z,2.35
2022-10-23T23:07:35.042Z,2.78
2022-10-23T23:12:37.832Z,3.10
2022-10-23T23:17:39.240Z,3.00
2022-10-23T23:22:40.685Z,2.88
2022-10-23T23:27:42.276Z,2.90
2022-10-23T23:32:47.077Z,2.75
2022-10-23T23:37:48.670Z,3.10
2022-10-23T23:42:50.152Z,3.25
2022-10-23T23:47:51.643Z,3.38
2022-10-23T23:52:53.185Z,3.85
2022-10-23T23:57:54.924Z,3.05
